createdAt,value
2018-05-24T00:00:54.411Z,2.55
2018-05-24T00:03:21.096Z,2.80
2018-05-24T00:05:47.775Z,2.87
2018-05-24T00:08:14.432Z,2.50
2018-05-24T00:10:41.631Z,2.28
2018-05-24T00:13:08.311Z,2.15
2018-05-24T00:15:34.960Z,2.67
2018-05-24T00:18:01.966Z,2.40
2018-05-24T00:20:28.602Z,1.95
2018-05-24T00:22:55.270Z,2.75
2018-05-24T00:25:21.946Z,2.40
2018-05-24T00:27:48.660Z,2.17
2018-05-24T00:30:15.348Z,2.45
2018-05-24T00:32:42.324Z,2.12
2018-05-24T00:35:09.026Z,2.45
2018-05-24T00:37:35.723Z,3.05
2018-05-24T00:40:02.411Z,2.12
2018-05-24T00:42:29.219Z,2.42
2018-05-24T00:44:55.885Z,2.20
2018-05-24T00:47:23.152Z,2.35
2018-05-24T00:49:49.828Z,2.30
2018-05-24T00:52:20.811Z,4.22
2018-05-24T00:54:51.678Z,2.17
2018-05-24T00:57:18.329Z,2.15
2018-05-24T00:59:45.939Z,2.20
2018-05-24T01:02:16.877Z,2.80
2018-05-24T01:04:43.562Z,2.28
2018-05-24T01:07:10.199Z,2.30
2018-05-24T01:09:36.874Z,2.17
2018-05-24T01:12:03.554Z,2.25
2018-05-24T01:14:30.556Z,2.78
2018-05-24T01:16:57.210Z,2.28
2018-05-24T01:19:27.834Z,1.83
2018-05-24T01:21:55.008Z,2.05
2018-05-24T01:24:21.653Z,2.35
2018-05-24T01:26:48.296Z,2.17
2018-05-24T01:29:14.935Z,2.30
2018-05-24T01:31:41.594Z,2.30
2018-05-24T01:34:08.239Z,2.30
2018-05-24T01:36:40.700Z,2.70
2018-05-24T01:39:07.360Z,2.58
2018-05-24T01:41:34.136Z,2.03
2018-05-24T01:44:01.338Z,2.58
2018-05-24T01:46:27.991Z,2.25
2018-05-24T01:48:54.633Z,2.20
2018-05-24T01:51:21.310Z,2.80
2018-05-24T01:53:52.771Z,2.22
2018-05-24T01:56:19.486Z,2.87
2018-05-24T01:58:46.142Z,2.70
2018-05-24T02:01:12.807Z,2.67
2018-05-24T02:03:39.467Z,2.45
2018-05-24T02:06:06.320Z,2.40
2018-05-24T02:08:33.673Z,2.45
2018-05-24T02:11:00.292Z,2.62
2018-05-24T02:13:27.170Z,2.72
2018-05-24T02:15:53.828Z,2.25
2018-05-24T02:18:20.483Z,2.85
2018-05-24T02:20:47.247Z,2.37
2018-05-24T02:23:13.912Z,2.45
2018-05-24T02:25:40.537Z,2.70
2018-05-24T02:28:07.209Z,2.50
2018-05-24T02:30:34.724Z,2.70
2018-05-24T02:33:01.405Z,3.37
2018-05-24T02:35:28.099Z,2.30
2018-05-24T02:37:54.742Z,2.53
2018-05-24T02:40:21.467Z,2.50
2018-05-24T02:42:48.829Z,2.58
2018-05-24T02:45:15.512Z,2.45
2018-05-24T02:47:42.165Z,2.53
2018-05-24T02:50:09.598Z,2.60
2018-05-24T02:52:36.792Z,3.17
2018-05-24T02:55:03.443Z,3.15
2018-05-24T02:57:30.134Z,2.70
2018-05-24T02:59:56.845Z,2.70
2018-05-24T03:02:23.553Z,3.15
2018-05-24T03:04:50.225Z,3.75
2018-05-24T03:07:16.988Z,4.10
2018-05-24T03:09:43.634Z,3.97
2018-05-24T03:12:10.297Z,3.05
2018-05-24T03:14:36.964Z,4.45
2018-05-24T03:17:03.583Z,3.30
2018-05-24T03:19:30.243Z,3.67
2018-05-24T03:21:56.902Z,3.40
2018-05-24T03:24:23.563Z,2.90
2018-05-24T03:26:50.261Z,3.70
2018-05-24T03:29:17.962Z,3.50
2018-05-24T03:31:44.618Z,3.08
2018-05-24T03:34:11.258Z,3.50
2018-05-24T03:36:41.662Z,3.30
2018-05-24T03:39:08.341Z,3.08
2018-05-24T03:41:35.662Z,3.10
2018-05-24T03:44:02.321Z,3.45
2018-05-24T03:46:29.000Z,4.20
2018-05-24T03:48:55.695Z,3.80
2018-05-24T03:51:22.390Z,3.30
2018-05-24T03:53:49.023Z,3.20
2018-05-24T03:56:15.699Z,3.20
2018-05-24T03:58:42.325Z,3.60
2018-05-24T04:01:14.912Z,2.70
2018-05-24T04:03:48.367Z,3.15
2018-05-24T04:06:15.006Z,3.40
2018-05-24T04:08:41.658Z,3.58
2018-05-24T04:11:08.356Z,3.37
2018-05-24T04:13:35.004Z,2.97
2018-05-24T04:16:01.656Z,2.83
2018-05-24T04:18:28.320Z,2.85
2018-05-24T04:20:55.846Z,2.97
2018-05-24T04:23:22.591Z,3.00
2018-05-24T04:25:49.160Z,2.90
2018-05-24T04:28:15.797Z,3.28
2018-05-24T04:30:42.443Z,3.03
2018-05-24T04:33:09.173Z,3.05
2018-05-24T04:35:35.737Z,2.97
2018-05-24T04:38:02.379Z,2.80
2018-05-24T04:40:29.038Z,3.15
2018-05-24T04:42:55.736Z,3.33
2018-05-24T04:45:22.449Z,2.67
2018-05-24T04:47:49.055Z,3.78
2018-05-24T04:50:15.748Z,2.97
2018-05-24T04:52:42.368Z,2.90
2018-05-24T04:55:09.058Z,3.20
2018-05-24T04:57:36.515Z,2.92
2018-05-24T05:00:03.145Z,3.28
2018-05-24T05:02:29.779Z,3.28
2018-05-24T05:04:56.426Z,2.80
2018-05-24T05:07:23.075Z,2.78
2018-05-24T05:09:49.978Z,3.83
2018-05-24T05:12:16.625Z,3.70
2018-05-24T05:14:43.339Z,2.97
2018-05-24T05:17:09.975Z,2.83
2018-05-24T05:19:36.658Z,3.55
2018-05-24T05:22:03.259Z,3.10
2018-05-24T05:24:29.916Z,3.35
2018-05-24T05:26:56.549Z,3.75
2018-05-24T05:29:23.928Z,3.15
2018-05-24T05:31:50.632Z,3.30
2018-05-24T05:34:17.279Z,3.40
2018-05-24T05:36:43.923Z,3.75
2018-05-24T05:39:10.595Z,4.00
2018-05-24T05:41:37.293Z,3.72
2018-05-24T05:44:03.917Z,3.05
2018-05-24T05:46:30.573Z,3.42
2018-05-24T05:48:57.266Z,3.70
2018-05-24T05:51:23.969Z,3.28
2018-05-24T05:53:50.614Z,3.62
2018-05-24T05:56:17.279Z,3.97
2018-05-24T05:58:43.947Z,4.00
2018-05-24T06:01:11.139Z,3.90
2018-05-24T06:03:37.775Z,4.17
2018-05-24T06:06:04.441Z,3.73
2018-05-24T06:08:31.059Z,3.57
2018-05-24T06:10:57.680Z,3.70
2018-05-24T06:13:24.335Z,5.20
2018-05-24T06:15:50.953Z,4.10
2018-05-24T06:18:17.619Z,3.80
2018-05-24T06:20:44.216Z,4.13
2018-05-24T06:23:11.670Z,3.80
2018-05-24T06:25:38.303Z,4.43
2018-05-24T06:28:04.996Z,3.37
2018-05-24T06:30:31.623Z,4.00
2018-05-24T06:32:58.265Z,4.97
2018-05-24T06:35:24.896Z,3.60
2018-05-24T06:37:51.659Z,3.80
2018-05-24T06:40:18.298Z,4.20
2018-05-24T06:42:45.064Z,3.90
2018-05-24T06:45:12.328Z,4.03
2018-05-24T06:47:38.966Z,4.03
2018-05-24T06:50:05.653Z,4.00
2018-05-24T06:52:32.293Z,4.00
2018-05-24T06:54:59.040Z,3.80
2018-05-24T06:57:25.676Z,4.00
2018-05-24T06:59:52.388Z,4.70
2018-05-24T07:02:18.938Z,4.90
2018-05-24T07:04:45.640Z,4.30
2018-05-24T07:07:12.299Z,4.47
2018-05-24T07:09:38.939Z,4.93
2018-05-24T07:12:05.583Z,4.80
2018-05-24T07:14:32.210Z,4.77
2018-05-24T07:16:59.069Z,4.97
2018-05-24T07:19:25.694Z,4.90
2018-05-24T07:21:52.362Z,4.33
2018-05-24T07:24:19.019Z,4.23
2018-05-24T07:26:45.647Z,4.47
2018-05-24T07:29:12.299Z,5.27
2018-05-24T07:31:39.452Z,4.33
2018-05-24T07:34:06.079Z,5.50
2018-05-24T07:36:32.718Z,8.50
2018-05-24T07:38:59.342Z,5.73
2018-05-24T07:41:26.014Z,5.90
2018-05-24T07:43:53.418Z,5.27
2018-05-24T07:46:20.054Z,5.33
2018-05-24T07:48:46.700Z,5.87
2018-05-24T07:51:13.327Z,4.80
2018-05-24T07:53:39.989Z,5.33
2018-05-24T07:56:06.672Z,4.87
2018-05-24T07:58:33.325Z,6.00
2018-05-24T08:00:59.989Z,5.57
2018-05-24T08:03:26.626Z,6.50
2018-05-24T08:05:53.264Z,7.27
2018-05-24T08:08:19.891Z,7.10
2018-05-24T08:10:46.543Z,6.83
2018-05-24T08:13:13.175Z,6.73
2018-05-24T08:15:39.886Z,7.63
2018-05-24T08:18:06.517Z,6.57
2018-05-24T08:20:33.150Z,6.70
2018-05-24T08:23:00.521Z,7.30
2018-05-24T08:25:27.143Z,7.33
2018-05-24T08:27:53.803Z,6.63
2018-05-24T08:30:20.449Z,7.57
2018-05-24T08:32:47.096Z,8.30
2018-05-24T08:35:13.764Z,6.70
2018-05-24T08:37:40.386Z,6.10
2018-05-24T08:40:08.226Z,5.93
2018-05-24T08:42:34.878Z,8.10
2018-05-24T08:45:01.527Z,6.07
2018-05-24T08:47:28.239Z,7.30
2018-05-24T08:49:54.814Z,6.90
2018-05-24T08:52:21.458Z,6.77
2018-05-24T08:54:48.168Z,6.50
2018-05-24T08:57:14.774Z,6.27
2018-05-24T08:59:41.435Z,7.07
2018-05-24T09:02:08.280Z,6.50
2018-05-24T09:04:34.926Z,6.20
2018-05-24T09:07:01.574Z,5.77
2018-05-24T09:09:28.220Z,6.33
2018-05-24T09:11:54.842Z,7.00
2018-05-24T09:14:21.512Z,6.23
2018-05-24T09:16:48.158Z,6.30
2018-05-24T09:19:14.793Z,7.03
2018-05-24T09:21:41.428Z,7.40
2018-05-24T09:24:08.084Z,7.07
2018-05-24T09:26:34.780Z,6.63
2018-05-24T09:29:01.399Z,7.30
2018-05-24T09:31:28.051Z,6.90
2018-05-24T09:33:54.675Z,6.40
2018-05-24T09:36:21.425Z,9.40
2018-05-24T09:38:48.031Z,6.83
2018-05-24T09:41:14.751Z,10.17
2018-05-24T09:43:41.408Z,7.77
2018-05-24T09:46:08.046Z,7.77
2018-05-24T09:48:34.698Z,8.10
2018-05-24T09:51:01.324Z,7.57
2018-05-24T09:53:27.983Z,6.73
2018-05-24T09:55:54.620Z,7.87
2018-05-24T09:58:21.282Z,6.60
2018-05-24T10:00:47.932Z,10.00
2018-05-24T10:03:14.764Z,7.23
2018-05-24T10:05:41.406Z,6.73
2018-05-24T10:08:08.073Z,7.07
2018-05-24T10:10:34.683Z,7.67
2018-05-24T10:13:01.359Z,6.93
2018-05-24T10:15:27.988Z,7.27
2018-05-24T10:17:54.638Z,7.57
2018-05-24T10:20:21.286Z,9.90
2018-05-24T10:22:47.924Z,7.17
2018-05-24T10:25:14.750Z,8.47
2018-05-24T10:27:41.999Z,8.63
2018-05-24T10:30:08.660Z,7.97
2018-05-24T10:32:36.220Z,7.60
2018-05-24T10:35:02.951Z,12.23
2018-05-24T10:37:29.491Z,8.43
2018-05-24T10:39:56.152Z,8.27
2018-05-24T10:42:22.800Z,9.70
2018-05-24T10:44:49.425Z,9.20
2018-05-24T10:47:16.208Z,8.90
2018-05-24T10:49:42.867Z,8.63
2018-05-24T10:52:09.512Z,8.40
2018-05-24T10:54:36.199Z,8.40
2018-05-24T10:57:02.864Z,9.40
2018-05-24T10:59:29.500Z,9.13
2018-05-24T11:01:56.135Z,10.50
2018-05-24T11:04:22.795Z,9.67
2018-05-24T11:06:49.460Z,9.80
2018-05-24T11:09:16.143Z,9.20
2018-05-24T11:11:42.860Z,10.23
2018-05-24T11:14:09.429Z,9.13
2018-05-24T11:16:36.904Z,10.63
2018-05-24T11:19:03.533Z,10.40
2018-05-24T11:21:30.141Z,10.13
2018-05-24T11:23:56.803Z,10.47
2018-05-24T11:26:23.479Z,9.60
2018-05-24T11:28:50.184Z,10.67
2018-05-24T11:31:16.918Z,10.40
2018-05-24T11:33:43.531Z,10.20
2018-05-24T11:36:10.177Z,10.30
2018-05-24T11:38:36.842Z,10.67
2018-05-24T11:41:03.472Z,9.80
2018-05-24T11:43:30.247Z,10.30
2018-05-24T11:45:56.765Z,11.23
2018-05-24T11:48:23.428Z,11.10
2018-05-24T11:50:50.072Z,11.13
2018-05-24T11:53:16.723Z,10.87
2018-05-24T11:55:43.352Z,11.80
2018-05-24T11:58:10.010Z,12.35
2018-05-24T12:00:36.678Z,12.90
2018-05-24T12:03:03.375Z,12.93
2018-05-24T12:05:30.003Z,12.60
2018-05-24T12:07:56.668Z,13.17
2018-05-24T12:10:23.362Z,13.05
2018-05-24T12:12:50.020Z,14.68
2018-05-24T12:15:16.758Z,13.25
2018-05-24T12:17:43.370Z,13.98
2018-05-24T12:20:10.021Z,13.50
2018-05-24T12:22:36.647Z,13.70
2018-05-24T12:25:03.304Z,13.02
2018-05-24T12:27:29.955Z,14.13
2018-05-24T12:29:56.610Z,13.60
2018-05-24T12:32:23.224Z,11.33
2018-05-24T12:34:49.878Z,12.40
2018-05-24T12:37:16.510Z,11.23
2018-05-24T12:39:43.155Z,13.20
2018-05-24T12:42:09.838Z,12.73
2018-05-24T12:44:36.485Z,11.52
2018-05-24T12:47:03.139Z,14.57
2018-05-24T12:49:29.795Z,14.03
2018-05-24T12:51:56.474Z,12.57
2018-05-24T12:54:23.098Z,13.90
2018-05-24T12:56:49.763Z,13.27
2018-05-24T12:59:16.398Z,12.70
2018-05-24T13:01:43.109Z,12.93
2018-05-24T13:04:09.795Z,12.40
2018-05-24T13:06:36.424Z,13.40
2018-05-24T13:09:03.979Z,13.03
2018-05-24T13:11:30.618Z,15.50
2018-05-24T13:13:57.319Z,14.10
2018-05-24T13:16:23.952Z,14.07
2018-05-24T13:18:50.591Z,15.10
2018-05-24T13:21:17.269Z,14.77
2018-05-24T13:23:43.927Z,13.80
2018-05-24T13:26:11.449Z,24.07
2018-05-24T13:28:38.078Z,13.67
2018-05-24T13:31:04.754Z,15.37
2018-05-24T13:33:31.383Z,15.53
2018-05-24T13:35:58.038Z,15.13
2018-05-24T13:38:24.716Z,14.67
2018-05-24T13:40:51.351Z,15.10
2018-05-24T13:43:17.993Z,15.40
2018-05-24T13:45:44.647Z,14.33
2018-05-24T13:48:11.309Z,14.57
2018-05-24T13:50:39.758Z,14.90
2018-05-24T13:53:06.437Z,14.60
2018-05-24T13:55:33.320Z,14.52
2018-05-24T13:58:00.014Z,16.23
2018-05-24T14:00:30.439Z,16.70
2018-05-24T14:02:57.137Z,15.00
2018-05-24T14:05:23.771Z,15.73
2018-05-24T14:07:50.435Z,13.70
2018-05-24T14:10:17.087Z,15.20
2018-05-24T14:12:43.759Z,15.70
2018-05-24T14:15:10.408Z,16.40
2018-05-24T14:17:37.217Z,15.25
2018-05-24T14:20:03.878Z,12.70
2018-05-24T14:22:30.542Z,14.48
2018-05-24T14:24:57.183Z,13.68
2018-05-24T14:27:23.848Z,12.27
2018-05-24T14:29:50.542Z,18.07
2018-05-24T14:32:17.186Z,13.70
2018-05-24T14:34:43.847Z,13.50
2018-05-24T14:39:43.735Z,14.70
2018-05-24T14:42:10.366Z,14.03
2018-05-24T14:44:37.029Z,13.93
2018-05-24T14:47:03.715Z,15.30
2018-05-24T14:49:30.401Z,15.70
2018-05-24T14:51:57.030Z,14.70
2018-05-24T14:54:23.687Z,15.00
2018-05-24T14:56:50.372Z,28.83
2018-05-24T14:59:17.015Z,15.70
2018-05-24T15:01:43.683Z,15.30
2018-05-24T15:04:10.366Z,15.47
2018-05-24T15:06:37.159Z,15.10
2018-05-24T15:09:04.503Z,14.47
2018-05-24T15:11:31.176Z,12.90
2018-05-24T15:13:57.866Z,14.73
2018-05-24T15:16:24.555Z,11.97
2018-05-24T15:18:51.199Z,14.70
2018-05-24T15:21:17.855Z,14.10
2018-05-24T15:23:44.521Z,13.87
2018-05-24T15:26:11.172Z,13.77
2018-05-24T15:28:37.819Z,14.10
2018-05-24T15:31:04.432Z,12.90
2018-05-24T15:33:31.098Z,14.15
2018-05-24T15:35:57.743Z,13.90
2018-05-24T15:38:24.394Z,14.93
2018-05-24T15:40:51.078Z,13.20
2018-05-24T15:43:17.728Z,23.03
2018-05-24T15:45:44.371Z,17.80
2018-05-24T15:48:11.017Z,14.37
2018-05-24T15:50:37.704Z,14.02
2018-05-24T15:53:04.349Z,14.50
2018-05-24T15:55:31.048Z,13.77
2018-05-24T15:57:57.727Z,13.80
2018-05-24T16:00:24.371Z,17.83
2018-05-24T16:02:51.006Z,15.20
2018-05-24T16:05:17.705Z,14.43
2018-05-24T16:07:44.342Z,13.17
2018-05-24T16:10:11.036Z,14.67
2018-05-24T16:12:37.663Z,15.63
2018-05-24T16:15:04.361Z,14.93
2018-05-24T16:17:31.010Z,14.57
2018-05-24T16:19:57.688Z,16.20
2018-05-24T16:22:24.344Z,15.17
2018-05-24T16:24:51.030Z,13.57
2018-05-24T16:27:17.678Z,15.80
2018-05-24T16:29:44.633Z,14.30
2018-05-24T16:32:11.296Z,14.47
2018-05-24T16:34:37.926Z,14.43
2018-05-24T16:37:04.597Z,14.40
2018-05-24T16:39:31.238Z,14.97
2018-05-24T16:41:58.583Z,15.27
2018-05-24T16:44:25.245Z,14.60
2018-05-24T16:46:51.957Z,14.53
2018-05-24T16:49:18.592Z,14.70
2018-05-24T16:51:45.388Z,16.20
2018-05-24T16:54:12.160Z,17.10
2018-05-24T16:56:38.834Z,19.93
2018-05-24T16:59:05.493Z,16.03
2018-05-24T17:01:32.120Z,16.13
2018-05-24T17:03:58.803Z,15.53
2018-05-24T17:06:25.453Z,19.53
2018-05-24T17:08:52.099Z,15.47
2018-05-24T17:11:19.609Z,15.57
2018-05-24T17:13:46.273Z,16.80
2018-05-24T17:16:12.940Z,15.90
2018-05-24T17:18:39.574Z,17.10
2018-05-24T17:21:06.240Z,16.27
2018-05-24T17:23:32.862Z,15.90
2018-05-24T17:25:59.564Z,15.25
2018-05-24T17:28:26.293Z,15.10
2018-05-24T17:30:52.899Z,15.10
2018-05-24T17:33:20.767Z,16.13
2018-05-24T17:35:47.438Z,14.87
2018-05-24T17:38:14.129Z,14.17
2018-05-24T17:40:41.550Z,13.80
2018-05-24T17:43:08.202Z,14.97
2018-05-24T17:45:34.856Z,14.40
2018-05-24T17:48:01.582Z,14.10
2018-05-24T17:50:28.311Z,13.10
2018-05-24T17:52:54.968Z,12.90
2018-05-24T17:55:21.655Z,12.13
2018-05-24T17:57:48.302Z,14.37
2018-05-24T18:00:14.991Z,15.03
2018-05-24T18:02:41.660Z,13.10
2018-05-24T18:05:08.361Z,13.50
2018-05-24T18:07:35.003Z,13.60
2018-05-24T18:10:01.737Z,12.50
2018-05-24T18:12:28.423Z,12.57
2018-05-24T18:14:55.104Z,12.57
2018-05-24T18:17:21.735Z,13.32
2018-05-24T18:19:48.381Z,14.07
2018-05-24T18:22:15.053Z,13.30
2018-05-24T18:24:41.703Z,14.48
2018-05-24T18:27:08.398Z,14.33
2018-05-24T18:29:35.064Z,14.63
2018-05-24T18:32:01.792Z,14.57
2018-05-24T18:34:28.458Z,15.00
2018-05-24T18:36:55.539Z,14.35
2018-05-24T18:39:22.239Z,12.60
2018-05-24T18:41:48.933Z,15.03
2018-05-24T18:44:16.158Z,14.75
2018-05-24T18:46:42.882Z,15.35
2018-05-24T18:49:09.642Z,14.80
2018-05-24T18:51:36.283Z,14.23
2018-05-24T18:54:02.953Z,15.90
2018-05-24T18:56:29.738Z,13.80
2018-05-24T18:58:56.704Z,14.40
2018-05-24T19:01:23.338Z,14.63
2018-05-24T19:03:50.065Z,14.17
2018-05-24T19:06:16.756Z,13.30
2018-05-24T19:08:43.499Z,14.40
2018-05-24T19:11:10.191Z,13.07
2018-05-24T19:13:36.871Z,14.75
2018-05-24T19:16:03.539Z,13.60
2018-05-24T19:18:30.240Z,15.50
2018-05-24T19:20:56.911Z,14.80
2018-05-24T19:23:23.620Z,15.85
2018-05-24T19:25:50.351Z,14.30
2018-05-24T19:28:17.022Z,14.80
2018-05-24T19:30:43.683Z,15.13
2018-05-24T19:33:10.404Z,13.10
2018-05-24T19:35:37.114Z,15.30
2018-05-24T19:38:03.801Z,16.83
2018-05-24T19:40:30.489Z,15.43
2018-05-24T19:42:57.180Z,16.60
2018-05-24T19:45:23.894Z,16.25
2018-05-24T19:47:50.610Z,15.63
2018-05-24T19:50:18.504Z,14.93
2018-05-24T19:52:45.158Z,15.48
2018-05-24T19:55:11.875Z,15.65
2018-05-24T19:57:38.660Z,16.30
2018-05-24T20:00:05.329Z,15.70
2018-05-24T20:02:32.013Z,15.80
2018-05-24T20:04:58.714Z,16.05
2018-05-24T20:07:25.436Z,15.05
2018-05-24T20:09:53.227Z,15.50
2018-05-24T20:12:19.945Z,16.50
2018-05-24T20:14:46.667Z,16.45
2018-05-24T20:17:13.403Z,17.48
2018-05-24T20:19:40.105Z,16.80
2018-05-24T20:22:06.796Z,17.05
2018-05-24T20:24:33.505Z,17.35
2018-05-24T20:27:00.167Z,18.23
2018-05-24T20:29:28.692Z,16.30
2018-05-24T20:31:55.433Z,16.98
2018-05-24T20:34:22.175Z,16.83
2018-05-24T20:36:48.859Z,19.67
2018-05-24T20:39:16.374Z,18.05
2018-05-24T20:41:43.086Z,17.37
2018-05-24T20:44:09.771Z,19.35
2018-05-24T20:46:36.470Z,18.67
2018-05-24T20:49:03.118Z,20.47
2018-05-24T20:51:29.782Z,19.02
2018-05-24T20:53:56.488Z,18.98
2018-05-24T20:56:23.177Z,20.00
2018-05-24T20:58:49.868Z,19.20
2018-05-24T21:01:16.541Z,20.03
2018-05-24T21:03:43.248Z,20.30
2018-05-24T21:06:09.894Z,18.42
2018-05-24T21:08:36.589Z,20.08
2018-05-24T21:11:03.254Z,21.25
2018-05-24T21:13:29.903Z,20.48
2018-05-24T21:15:56.606Z,21.77
2018-05-24T21:18:23.300Z,21.75
2018-05-24T21:20:49.988Z,21.80
2018-05-24T21:23:16.669Z,22.62
2018-05-24T21:25:43.315Z,21.00
2018-05-24T21:28:10.284Z,20.98
2018-05-24T21:30:36.962Z,21.85
2018-05-24T21:33:03.833Z,21.45
2018-05-24T21:35:30.536Z,21.48
2018-05-24T21:37:57.289Z,21.55
2018-05-24T21:40:23.915Z,21.65
2018-05-24T21:42:50.616Z,24.92
2018-05-24T21:45:17.274Z,22.60
2018-05-24T21:47:44.265Z,21.58
2018-05-24T21:50:11.079Z,22.65
2018-05-24T21:52:37.786Z,21.05
2018-05-24T21:55:04.458Z,20.65
2018-05-24T21:57:31.156Z,21.23
2018-05-24T21:59:57.804Z,21.95
2018-05-24T22:02:24.441Z,22.50
2018-05-24T22:04:51.092Z,22.67
2018-05-24T22:07:17.769Z,22.92
2018-05-24T22:09:44.412Z,21.92
2018-05-24T22:12:11.123Z,22.50
2018-05-24T22:14:37.823Z,20.98
2018-05-24T22:17:04.500Z,21.40
2018-05-24T22:19:31.199Z,23.20
2018-05-24T22:21:57.836Z,20.77
2018-05-24T22:24:25.299Z,22.10
2018-05-24T22:26:51.932Z,21.75
2018-05-24T22:29:18.585Z,21.90
2018-05-24T22:31:45.270Z,23.42
2018-05-24T22:34:11.970Z,21.90
2018-05-24T22:36:38.642Z,22.30
2018-05-24T22:39:05.331Z,19.83
2018-05-24T22:41:31.964Z,20.62
2018-05-24T22:43:58.610Z,21.10
2018-05-24T22:46:25.240Z,21.05
2018-05-24T22:48:52.902Z,20.55
2018-05-24T22:51:19.939Z,22.23
2018-05-24T22:53:46.611Z,21.25
2018-05-24T22:56:13.289Z,20.88
2018-05-24T22:58:40.001Z,19.85
2018-05-24T23:01:06.668Z,21.25
2018-05-24T23:03:33.298Z,20.73
2018-05-24T23:05:59.956Z,19.67
2018-05-24T23:08:26.580Z,21.30
2018-05-24T23:10:53.354Z,20.05
2018-05-24T23:13:19.980Z,20.17
2018-05-24T23:15:46.647Z,21.00
2018-05-24T23:18:13.279Z,23.73
2018-05-24T23:20:39.931Z,22.95
2018-05-24T23:23:06.572Z,22.58
2018-05-24T23:25:33.213Z,22.77
2018-05-24T23:27:59.843Z,22.73
2018-05-24T23:30:26.486Z,22.55
2018-05-24T23:32:53.140Z,21.95
2018-05-24T23:35:20.598Z,23.23
2018-05-24T23:37:47.232Z,21.95
2018-05-24T23:40:13.860Z,22.20
2018-05-24T23:42:40.522Z,20.75
2018-05-24T23:45:07.144Z,22.37
2018-05-24T23:47:33.804Z,20.88
2018-05-24T23:50:00.438Z,21.45
2018-05-24T23:52:27.076Z,21.60
2018-05-24T23:54:53.715Z,22.73
2018-05-24T23:57:20.355Z,24.08
2018-05-24T23:59:46.987Z,22.85
